createdAt,value
2022-11-21T00:01:21.808Z,95800.34
2022-11-21T00:03:54.703Z,95795.47
2022-11-21T00:06:27.800Z,95785.28
2022-11-21T00:09:00.658Z,95786.53
2022-11-21T00:11:33.663Z,95786.22
2022-11-21T00:14:06.587Z,95779.34
2022-11-21T00:16:40.900Z,95774.44
2022-11-21T00:19:13.997Z,95784.34
2022-11-21T00:21:46.985Z,95784.66
2022-11-21T00:24:19.981Z,95786.22
2022-11-21T00:26:52.872Z,95791.97
2022-11-21T00:29:26.023Z,95787.13
2022-11-21T00:32:00.231Z,95780.38
2022-11-21T00:34:33.061Z,95774.41
2022-11-21T00:37:05.879Z,95766.56
2022-11-21T00:39:38.649Z,95757.16
2022-11-21T00:42:11.477Z,95747.41
2022-11-21T00:44:44.335Z,95755.22
2022-11-21T00:47:18.948Z,95756.91
2022-11-21T00:49:51.807Z,95752.94
2022-11-21T00:52:24.614Z,95759.66
2022-11-21T00:54:57.702Z,95761.66
2022-11-21T00:57:30.485Z,95743.94
2022-11-21T01:00:03.366Z,95768.03
2022-11-21T01:02:37.750Z,95768.16
2022-11-21T01:05:11.276Z,95770.81
2022-11-21T01:07:44.149Z,95770.97
2022-11-21T01:10:17.007Z,95765.31
2022-11-21T01:12:49.883Z,95761.19
2022-11-21T01:15:22.655Z,95751.78
2022-11-21T01:17:57.072Z,95752.34
2022-11-21T01:20:29.944Z,95742.16
2022-11-21T01:23:03.121Z,95733.19
2022-11-21T01:25:36.196Z,95740.97
2022-11-21T01:28:09.041Z,95731.25
2022-11-21T01:30:41.814Z,95739.34
2022-11-21T01:33:16.423Z,95730.69
2022-11-21T01:35:49.300Z,95730.81
2022-11-21T01:38:22.453Z,95718.06
2022-11-21T01:40:55.329Z,95710.50
2022-11-21T01:43:28.264Z,95693.53
2022-11-21T01:46:02.447Z,95676.91
2022-11-21T01:48:43.683Z,95656.91
2022-11-21T01:51:21.779Z,95647.13
2022-11-21T01:54:01.253Z,95653.69
2022-11-21T01:56:40.726Z,95667.47
2022-11-21T01:59:20.756Z,95665.56
2022-11-21T02:01:56.618Z,95644.13
2022-11-21T02:04:33.995Z,95613.69
2022-11-21T02:07:08.926Z,95620.13
2022-11-21T02:09:47.403Z,95626.25
2022-11-21T02:12:24.981Z,95630.34
2022-11-21T02:14:59.753Z,95631.13
2022-11-21T02:17:33.705Z,95630.34
2022-11-21T02:20:10.937Z,95627.03
2022-11-21T02:22:49.529Z,95613.38
2022-11-21T02:25:27.342Z,95611.94
2022-11-21T02:28:04.106Z,95604.81
2022-11-21T02:30:39.066Z,95608.03
2022-11-21T02:33:13.105Z,95606.56
2022-11-21T02:35:46.001Z,95591.81
2022-11-21T02:38:23.656Z,95578.22
2022-11-21T02:41:04.874Z,95577.25
2022-11-21T02:43:43.763Z,95579.56
2022-11-21T02:46:16.764Z,95573.78
2022-11-21T02:48:49.666Z,95590.56
2022-11-21T02:51:23.043Z,95578.34
2022-11-21T02:53:55.909Z,95572.56
2022-11-21T02:56:30.437Z,95558.44
2022-11-21T02:59:03.517Z,95558.78
2022-11-21T03:01:36.340Z,95566.44
2022-11-21T03:04:09.335Z,95562.59
2022-11-21T03:06:42.165Z,95560.25
2022-11-21T03:09:14.991Z,95559.47
2022-11-21T03:11:49.453Z,95566.25
2022-11-21T03:14:22.271Z,95551.28
2022-11-21T03:16:55.265Z,95553.81
2022-11-21T03:19:28.183Z,95545.38
2022-11-21T03:22:01.185Z,95544.50
2022-11-21T03:24:34.130Z,95541.38
2022-11-21T03:27:08.760Z,95544.81
2022-11-21T03:29:41.802Z,95558.16
2022-11-21T03:32:14.629Z,95550.16
2022-11-21T03:34:47.377Z,95552.50
2022-11-21T03:37:20.335Z,95558.59
2022-11-21T03:39:53.133Z,95546.38
2022-11-21T03:42:27.698Z,95553.28
2022-11-21T03:45:00.624Z,95553.59
2022-11-21T03:47:33.491Z,95547.16
2022-11-21T03:50:06.904Z,95541.84
2022-11-21T03:52:39.917Z,95542.94
2022-11-21T03:55:12.762Z,95542.16
2022-11-21T03:57:47.334Z,95536.84
2022-11-21T04:00:20.695Z,95548.28
2022-11-21T04:02:53.570Z,95542.94
2022-11-21T04:05:26.407Z,95540.28
2022-11-21T04:07:59.426Z,95552.50
2022-11-21T04:10:32.282Z,95542.25
2022-11-21T04:13:06.526Z,95546.94
2022-11-21T04:15:39.586Z,95552.25
2022-11-21T04:18:12.941Z,95558.38
2022-11-21T04:20:45.891Z,95561.47
2022-11-21T04:23:18.843Z,95547.03
2022-11-21T04:25:51.753Z,95550.91
2022-11-21T04:28:26.157Z,95540.69
2022-11-21T04:31:07.031Z,95550.56
2022-11-21T04:33:43.084Z,95547.47
2022-11-21T04:36:15.973Z,95552.47
2022-11-21T04:38:48.986Z,95554.72
2022-11-21T04:41:22.275Z,95550.50
2022-11-21T04:43:56.527Z,95538.72
2022-11-21T04:46:29.800Z,95535.59
2022-11-21T04:49:02.908Z,95560.38
2022-11-21T04:51:35.893Z,95552.38
2022-11-21T04:54:08.752Z,95545.47
2022-11-21T04:56:41.542Z,95542.50
2022-11-21T04:59:15.768Z,95546.25
2022-11-21T05:01:48.592Z,95551.16
2022-11-21T05:04:21.489Z,95557.25
2022-11-21T05:06:54.481Z,95551.81
2022-11-21T05:09:27.608Z,95551.38
2022-11-21T05:12:14.317Z,95546.06
2022-11-21T05:14:48.906Z,95551.72
2022-11-21T05:17:21.977Z,95546.38
2022-11-21T05:19:54.959Z,95545.94
2022-11-21T05:22:27.836Z,95561.16
2022-11-21T05:25:00.800Z,95559.25
2022-11-21T05:27:33.666Z,95554.25
2022-11-21T05:30:09.362Z,95557.72
2022-11-21T05:32:42.463Z,95562.59
2022-11-21T05:35:15.671Z,95555.69
2022-11-21T05:37:48.445Z,95553.81
2022-11-21T05:40:21.491Z,95550.03
2022-11-21T05:43:12.365Z,95556.94
2022-11-21T05:45:46.959Z,95554.38
2022-11-21T05:48:20.079Z,95567.47
2022-11-21T05:50:53.047Z,95576.69
2022-11-21T05:53:25.804Z,95574.56
2022-11-21T05:56:03.569Z,95566.00
2022-11-21T05:58:36.986Z,95568.34
2022-11-21T06:01:14.623Z,95574.25
2022-11-21T06:03:46.410Z,95576.22
2022-11-21T06:06:23.648Z,95574.78
2022-11-21T06:08:57.732Z,95570.38
2022-11-21T06:11:30.615Z,95582.69
2022-11-21T06:14:03.505Z,95573.56
2022-11-21T06:16:38.023Z,95572.91
2022-11-21T06:19:10.830Z,95573.66
2022-11-21T06:21:43.737Z,95557.31
2022-11-21T06:24:21.733Z,95557.75
2022-11-21T06:26:55.095Z,95549.41
2022-11-21T06:29:27.909Z,95562.44
2022-11-21T06:32:02.530Z,95553.72
2022-11-21T06:34:35.517Z,95554.50
2022-11-21T06:37:08.347Z,95548.06
2022-11-21T06:39:41.168Z,95547.28
2022-11-21T06:42:14.367Z,95541.63
2022-11-21T06:44:47.163Z,95544.28
2022-11-21T06:47:22.003Z,95562.28
2022-11-21T06:49:54.914Z,95560.06
2022-11-21T06:52:27.871Z,95557.03
2022-11-21T06:55:00.958Z,95553.59
2022-11-21T06:57:33.911Z,95546.81
2022-11-21T07:00:08.280Z,95551.03
2022-11-21T07:02:42.458Z,95560.25
2022-11-21T07:05:15.480Z,95567.50
2022-11-21T07:07:48.362Z,95558.38
2022-11-21T07:10:21.511Z,95550.25
2022-11-21T07:13:15.962Z,95545.69
2022-11-21T07:15:50.367Z,95551.69
2022-11-21T07:18:24.978Z,95546.28
2022-11-21T07:21:00.515Z,95545.06
2022-11-21T07:23:34.751Z,95539.97
2022-11-21T07:26:09.351Z,95540.63
2022-11-21T07:28:42.490Z,95543.97
2022-11-21T07:31:15.346Z,95535.88
2022-11-21T07:33:49.654Z,95534.31
2022-11-21T07:36:22.746Z,95531.53
2022-11-21T07:38:55.820Z,95538.00
2022-11-21T07:41:29.275Z,95532.31
2022-11-21T07:44:02.459Z,95529.66
2022-11-21T07:46:35.420Z,95519.75
2022-11-21T07:49:09.682Z,95522.88
2022-11-21T07:51:42.960Z,95522.88
2022-11-21T07:54:15.909Z,95518.00
2022-11-21T07:56:48.722Z,95513.44
2022-11-21T07:59:21.604Z,95516.97
2022-11-21T08:01:54.723Z,95515.50
2022-11-21T08:04:31.891Z,95514.84
2022-11-21T08:07:05.572Z,95510.69
2022-11-21T08:09:39.910Z,95508.91
2022-11-21T08:12:13.898Z,95509.00
2022-11-21T08:14:47.030Z,95518.34
2022-11-21T08:17:20.067Z,95518.06
2022-11-21T08:19:54.347Z,95510.59
2022-11-21T08:22:27.638Z,95519.59
2022-11-21T08:25:00.476Z,95511.00
2022-11-21T08:27:33.553Z,95506.94
2022-11-21T08:30:08.505Z,95497.56
2022-11-21T08:32:41.756Z,95501.44
2022-11-21T08:35:16.207Z,95497.31
2022-11-21T08:37:49.269Z,95488.97
2022-11-21T08:40:22.228Z,95493.59
2022-11-21T08:42:58.790Z,95494.38
2022-11-21T08:45:33.006Z,95482.84
2022-11-21T08:48:10.292Z,95484.28
2022-11-21T08:50:44.521Z,95476.28
2022-11-21T08:53:17.675Z,95477.84
2022-11-21T08:55:50.530Z,95459.91
2022-11-21T08:58:23.436Z,95458.44
2022-11-21T09:00:56.505Z,95447.41
2022-11-21T09:03:31.249Z,95446.28
2022-11-21T09:06:06.486Z,95444.50
2022-11-21T09:08:39.837Z,95437.66
2022-11-21T09:11:12.730Z,95432.78
2022-11-21T09:14:06.185Z,95428.63
2022-11-21T09:17:01.824Z,95423.78
2022-11-21T09:19:35.316Z,95433.13
2022-11-21T09:22:09.511Z,95437.84
2022-11-21T09:24:42.325Z,95440.25
2022-11-21T09:27:15.237Z,95431.19
2022-11-21T09:29:52.433Z,95428.59
2022-11-21T09:32:27.233Z,95428.66
2022-11-21T09:35:00.049Z,95425.28
2022-11-21T09:37:37.756Z,95412.44
2022-11-21T09:40:14.507Z,95408.56
2022-11-21T09:43:26.662Z,95407.88
2022-11-21T09:46:04.716Z,95405.63
2022-11-21T09:48:48.165Z,95389.59
2022-11-21T09:51:22.541Z,95402.59
2022-11-21T09:54:01.772Z,95406.47
2022-11-21T09:56:39.494Z,95392.75
2022-11-21T09:59:26.664Z,95379.47
2022-11-21T10:01:59.691Z,95366.09
2022-11-21T10:04:32.627Z,95355.03
2022-11-21T10:07:10.409Z,95345.53
2022-11-21T10:09:57.150Z,95344.16
2022-11-21T10:12:38.598Z,95342.00
2022-11-21T10:15:30.585Z,95335.22
2022-11-21T10:18:09.699Z,95335.69
2022-11-21T10:20:53.996Z,95329.00
2022-11-21T10:23:54.300Z,95325.31
2022-11-21T10:26:42.210Z,95319.34
2022-11-21T10:29:21.157Z,95309.13
2022-11-21T10:31:57.111Z,95313.81
2022-11-21T10:34:33.834Z,95302.81
2022-11-21T10:37:14.536Z,95291.81
2022-11-21T10:39:51.022Z,95284.59
2022-11-21T10:42:33.494Z,95273.25
2022-11-21T10:45:19.295Z,95265.69
2022-11-21T10:47:55.177Z,95260.41
2022-11-21T10:50:48.084Z,95257.84
2022-11-21T10:53:40.483Z,95252.56
2022-11-21T10:56:15.949Z,95241.91
2022-11-21T10:58:52.254Z,95239.66
2022-11-21T11:01:30.841Z,95222.16
2022-11-21T11:07:22.201Z,95208.94
2022-11-21T11:10:16.129Z,95201.34
2022-11-21T11:13:30.871Z,95190.34
2022-11-21T11:16:06.156Z,95186.22
2022-11-21T11:18:42.731Z,95191.25
2022-11-21T11:21:21.593Z,95173.66
2022-11-21T11:23:56.001Z,95153.41
2022-11-21T11:26:30.995Z,95144.97
2022-11-21T11:29:11.737Z,95141.50
2022-11-21T11:31:54.387Z,95136.94
2022-11-21T11:34:30.623Z,95129.63
2022-11-21T11:37:12.967Z,95120.81
2022-11-21T11:39:56.881Z,95115.81
2022-11-21T11:43:04.636Z,95120.78
2022-11-21T11:46:14.454Z,95104.25
2022-11-21T11:49:17.504Z,95094.63
2022-11-21T11:51:48.200Z,95093.03
2022-11-21T11:54:24.965Z,95083.78
2022-11-21T11:56:58.765Z,95082.19
2022-11-21T11:59:38.542Z,95077.56
2022-11-21T12:02:19.676Z,95076.41
2022-11-21T12:05:02.769Z,95072.13
2022-11-21T12:11:00.936Z,95058.31
2022-11-21T12:13:37.214Z,95051.44
2022-11-21T12:16:14.438Z,95039.97
2022-11-21T12:18:53.490Z,95026.16
2022-11-21T12:21:27.887Z,95029.19
2022-11-21T12:24:04.014Z,95016.94
2022-11-21T12:26:50.432Z,95016.19
2022-11-21T12:29:38.277Z,95010.03
2022-11-21T12:32:27.587Z,94988.25
2022-11-21T12:35:27.172Z,94985.91
2022-11-21T12:38:10.156Z,94968.31
2022-11-21T12:40:53.581Z,94969.44
2022-11-21T12:43:34.464Z,94958.69
2022-11-21T12:46:18.624Z,94958.69
2022-11-21T12:49:17.299Z,94947.97
2022-11-21T12:52:39.206Z,94946.41
2022-11-21T12:55:35.615Z,94929.16
2022-11-21T12:58:22.255Z,94918.03
2022-11-21T13:01:19.663Z,94913.47
2022-11-21T13:04:01.247Z,94902.38
2022-11-21T13:06:40.071Z,94900.06
2022-11-21T13:09:17.688Z,94888.59
2022-11-21T13:12:02.652Z,94887.09
2022-11-21T13:14:43.084Z,94875.22
2022-11-21T13:17:37.323Z,94877.56
2022-11-21T13:20:20.796Z,94867.63
2022-11-21T13:22:56.460Z,94870.00
2022-11-21T13:25:52.977Z,94870.09
2022-11-21T13:28:49.680Z,94862.88
2022-11-21T13:31:31.359Z,94851.44
2022-11-21T13:34:05.760Z,94844.56
2022-11-21T13:36:45.570Z,94833.16
2022-11-21T13:39:30.341Z,94822.50
2022-11-21T13:42:23.606Z,94814.06
2022-11-21T13:44:58.449Z,94810.66
2022-11-21T13:48:03.691Z,94798.41
2022-11-21T13:51:05.242Z,94798.03
2022-11-21T13:53:58.176Z,94790.38
2022-11-21T13:56:38.268Z,94781.16
2022-11-21T13:59:34.094Z,94780.78
2022-11-21T14:02:27.359Z,94773.47
2022-11-21T14:05:20.886Z,94772.69
2022-11-21T14:07:53.883Z,94773.00
2022-11-21T14:10:34.579Z,94771.09
2022-11-21T14:13:07.539Z,94771.44
2022-11-21T14:15:51.456Z,94755.34
2022-11-21T14:18:27.947Z,94742.28
2022-11-21T14:21:02.277Z,94729.63
2022-11-21T14:23:36.369Z,94728.88
2022-11-21T14:26:16.058Z,94722.34
2022-11-21T14:28:49.446Z,94722.34
2022-11-21T14:31:22.320Z,94721.53
2022-11-21T14:33:59.300Z,94707.75
2022-11-21T14:36:33.799Z,94701.25
2022-11-21T14:42:05.144Z,94695.88
2022-11-21T14:44:38.178Z,94684.00
2022-11-21T14:47:25.632Z,94679.06
2022-11-21T14:50:07.401Z,94674.84
2022-11-21T14:52:40.567Z,94673.28
2022-11-21T14:55:32.466Z,94668.72
2022-11-21T14:58:07.020Z,94673.66
2022-11-21T15:03:33.031Z,94672.91
2022-11-21T15:06:12.000Z,94679.72
2022-11-21T15:09:39.653Z,94678.91
2022-11-21T15:11:41.255Z,94667.75
2022-11-21T15:14:23.072Z,94662.38
2022-11-21T15:16:57.143Z,94656.56
2022-11-21T15:19:32.817Z,94653.13
2022-11-21T15:22:07.309Z,94643.47
2022-11-21T15:24:43.118Z,94630.44
2022-11-21T15:27:31.993Z,94615.47
2022-11-21T15:30:24.671Z,94605.47
2022-11-21T15:33:05.274Z,94595.44
2022-11-21T15:35:56.761Z,94584.66
2022-11-21T15:38:33.971Z,94579.97
2022-11-21T15:41:25.854Z,94581.44
2022-11-21T15:44:20.713Z,94577.53
2022-11-21T15:46:53.853Z,94567.13
2022-11-21T15:49:34.094Z,94562.84
2022-11-21T15:52:13.508Z,94551.34
2022-11-21T15:54:48.406Z,94541.66
2022-11-21T15:57:22.236Z,94542.38
2022-11-21T15:59:55.435Z,94532.00
2022-11-21T16:02:28.436Z,94523.53
2022-11-21T16:05:01.371Z,94534.91
2022-11-21T16:07:34.393Z,94534.88
2022-11-21T16:10:18.390Z,94547.03
2022-11-21T16:12:52.516Z,94535.53
2022-11-21T16:15:25.573Z,94533.22
2022-11-21T16:17:58.419Z,94521.03
2022-11-21T16:20:31.278Z,94510.31
2022-11-21T16:23:05.604Z,94520.94
2022-11-21T16:25:51.288Z,94511.78
2022-11-21T16:28:24.088Z,94516.34
2022-11-21T16:30:58.545Z,94509.47
2022-11-21T16:33:31.812Z,94498.81
2022-11-21T16:36:04.610Z,94485.81
2022-11-21T16:38:37.450Z,94480.13
2022-11-21T16:41:11.747Z,94464.91
2022-11-21T16:43:47.852Z,94458.44
2022-11-21T16:46:22.033Z,94458.03
2022-11-21T16:49:00.571Z,94451.97
2022-11-21T16:51:33.548Z,94451.16
2022-11-21T16:54:09.162Z,94446.16
2022-11-21T16:56:43.737Z,94450.72
2022-11-21T16:59:16.609Z,94449.97
2022-11-21T17:01:49.735Z,94449.97
2022-11-21T17:04:22.577Z,94438.53
2022-11-21T17:06:55.431Z,94421.00
2022-11-21T17:09:28.290Z,94411.84
2022-11-21T17:12:02.441Z,94412.25
2022-11-21T17:14:35.456Z,94406.50
2022-11-21T17:17:08.242Z,94404.63
2022-11-21T17:19:41.088Z,94406.16
2022-11-21T17:22:13.945Z,94420.66
2022-11-21T17:24:47.229Z,94431.34
2022-11-21T17:27:21.599Z,94423.38
2022-11-21T17:29:54.571Z,94430.63
2022-11-21T17:32:27.394Z,94429.47
2022-11-21T17:35:00.294Z,94424.53
2022-11-21T17:37:33.093Z,94414.63
2022-11-21T17:40:10.999Z,94423.03
2022-11-21T17:42:45.226Z,94414.69
2022-11-21T17:45:18.144Z,94418.84
2022-11-21T17:47:50.972Z,94427.19
2022-11-21T17:50:23.793Z,94419.94
2022-11-21T17:52:58.279Z,94423.38
2022-11-21T17:55:31.154Z,94416.88
2022-11-21T17:58:05.994Z,94437.09
2022-11-21T18:00:38.766Z,94421.81
2022-11-21T18:03:11.504Z,94421.03
2022-11-21T18:05:47.496Z,94437.03
2022-11-21T18:08:24.240Z,94445.03
2022-11-21T18:10:57.048Z,94452.28
2022-11-21T18:13:32.348Z,94462.59
2022-11-21T18:16:07.425Z,94461.81
2022-11-21T18:18:40.640Z,94464.47
2022-11-21T18:21:15.569Z,94448.47
2022-11-21T18:23:48.566Z,94439.28
2022-11-21T18:26:24.085Z,94448.84
2022-11-21T18:29:34.561Z,94445.41
2022-11-21T18:31:53.216Z,94451.88
2022-11-21T18:34:26.161Z,94454.53
2022-11-21T18:36:59.060Z,94463.31
2022-11-21T18:39:32.155Z,94461.75
2022-11-21T18:42:05.321Z,94466.75
2022-11-21T18:44:39.819Z,94461.81
2022-11-21T18:47:20.577Z,94453.81
2022-11-21T18:49:53.827Z,94452.28
2022-11-21T18:52:27.342Z,94453.03
2022-11-21T18:55:00.213Z,94458.38
2022-11-21T18:57:33.004Z,94460.69
2022-11-21T19:00:08.960Z,94453.09
2022-11-21T19:02:41.831Z,94463.75
2022-11-21T19:05:20.219Z,94449.28
2022-11-21T19:07:53.628Z,94450.44
2022-11-21T19:10:42.519Z,94456.13
2022-11-21T19:13:16.578Z,94440.13
2022-11-21T19:15:50.872Z,94437.47
2022-11-21T19:18:23.747Z,94428.72
2022-11-21T19:20:56.550Z,94440.53
2022-11-21T19:23:29.487Z,94442.06
2022-11-21T19:26:02.707Z,94437.09
2022-11-21T19:28:35.538Z,94445.09
2022-11-21T19:31:12.579Z,94456.91
2022-11-21T19:33:45.406Z,94448.13
2022-11-21T19:36:20.993Z,94443.22
2022-11-21T19:38:53.844Z,94440.53
2022-11-21T19:41:27.082Z,94442.06
2022-11-21T19:44:01.358Z,94445.53
2022-11-21T19:46:38.839Z,94452.81
2022-11-21T19:49:12.668Z,94460.03
2022-11-21T19:51:45.542Z,94468.06
2022-11-21T19:54:18.506Z,94460.81
2022-11-21T19:56:51.273Z,94466.56
2022-11-21T19:59:24.091Z,94461.63
2022-11-21T20:01:58.595Z,94459.38
2022-11-21T20:04:31.643Z,94449.09
2022-11-21T20:07:07.679Z,94463.59
2022-11-21T20:09:41.231Z,94457.13
2022-11-21T20:12:14.357Z,94453.75
2022-11-21T20:14:47.225Z,94453.41
2022-11-21T20:17:21.389Z,94461.44
2022-11-21T20:19:54.208Z,94461.84
2022-11-21T20:22:27.129Z,94466.84
2022-11-21T20:25:00.050Z,94465.72
2022-11-21T20:27:32.886Z,94466.88
2022-11-21T20:30:07.282Z,94463.84
2022-11-21T20:32:41.527Z,94468.44
2022-11-21T20:35:14.514Z,94461.97
2022-11-21T20:37:47.606Z,94466.56
2022-11-21T20:40:20.571Z,94461.25
2022-11-21T20:42:53.948Z,94456.31
2022-11-21T20:48:21.228Z,94441.09
2022-11-21T20:53:52.949Z,94435.78
2022-11-21T20:56:27.710Z,94444.19
2022-11-21T20:59:00.647Z,94434.66
2022-11-21T21:01:34.063Z,94436.56
2022-11-21T21:04:09.344Z,94444.97
2022-11-21T21:06:42.221Z,94427.00
2022-11-21T21:09:15.051Z,94429.66
2022-11-21T21:11:53.008Z,94434.66
2022-11-21T21:14:26.431Z,94432.75
2022-11-21T21:16:59.324Z,94421.66
2022-11-21T21:19:33.735Z,94441.91
2022-11-21T21:22:09.074Z,94430.03
2022-11-21T21:24:41.968Z,94441.09
2022-11-21T21:27:14.801Z,94459.38
2022-11-21T21:29:47.665Z,94459.38
2022-11-21T21:32:20.491Z,94450.22
2022-11-21T21:34:54.673Z,94461.31
2022-11-21T21:37:27.491Z,94454.03
2022-11-21T21:40:00.310Z,94451.34
2022-11-21T21:42:33.160Z,94452.47
2022-11-21T21:45:06.406Z,94448.28
2022-11-21T21:47:39.292Z,94442.94
2022-11-21T21:50:15.984Z,94452.13
2022-11-21T21:52:49.068Z,94443.34
2022-11-21T21:55:21.890Z,94448.28
2022-11-21T21:57:54.738Z,94450.59
2022-11-21T22:00:27.707Z,94445.25
2022-11-21T22:03:00.684Z,94452.47
2022-11-21T22:05:34.862Z,94461.66
2022-11-21T22:08:07.870Z,94459.72
2022-11-21T22:10:40.667Z,94462.41
2022-11-21T22:13:13.787Z,94449.41
2022-11-21T22:15:46.551Z,94455.50
2022-11-21T22:18:19.367Z,94447.09
2022-11-21T22:20:53.846Z,94442.91
2022-11-21T22:23:26.789Z,94447.84
2022-11-21T22:25:59.656Z,94445.56
2022-11-21T22:28:32.482Z,94442.09
2022-11-21T22:31:05.703Z,94454.28
2022-11-21T22:33:39.893Z,94454.66
2022-11-21T22:36:15.611Z,94456.56
2022-11-21T22:38:49.015Z,94453.09
2022-11-21T22:41:23.925Z,94453.09
2022-11-21T22:43:58.682Z,94451.56
2022-11-21T22:46:32.578Z,94450.78
2022-11-21T22:49:05.428Z,94446.59
2022-11-21T22:51:39.599Z,94452.28
2022-11-21T22:54:13.126Z,94449.63
2022-11-21T22:56:45.949Z,94462.59
2022-11-21T22:59:18.817Z,94455.34
2022-11-21T23:01:51.664Z,94464.13
2022-11-21T23:04:24.606Z,94462.94
2022-11-21T23:06:58.871Z,94459.56
2022-11-21T23:09:31.971Z,94455.72
2022-11-21T23:12:05.194Z,94463.72
2022-11-21T23:14:38.039Z,94451.91
2022-11-21T23:17:10.884Z,94438.19
2022-11-21T23:19:43.707Z,94438.94
2022-11-21T23:22:17.987Z,94438.94
2022-11-21T23:24:50.884Z,94438.19
2022-11-21T23:27:23.713Z,94421.03
2022-11-21T23:29:56.507Z,94417.59
2022-11-21T23:32:29.283Z,94414.91
2022-11-21T23:35:02.318Z,94419.50
2022-11-21T23:37:36.843Z,94426.75
2022-11-21T23:40:11.091Z,94427.91
2022-11-21T23:42:46.227Z,94422.56
2022-11-21T23:45:19.068Z,94423.31
2022-11-21T23:47:51.887Z,94429.84
2022-11-21T23:50:24.942Z,94425.28
2022-11-21T23:52:59.107Z,94431.78
2022-11-21T23:55:32.598Z,94433.69
2022-11-21T23:58:05.627Z,94428.72
